Time;durP1;ratioP1;P1;durP2;ratioP2;P2;SDS_P1;SDS_P2;PMS_P1;PMS_P2;Temp;Humidity;BMP_temperature;BMP_pressure;BME280_temperature;BME280_humidity;BME280_pressure;Samples;Min_cycle;Max_cycle;Signal;HPM_P1;HPM_P2
2023/12/13 00:01:54;;;;;;;28.80;11.77;;;6.20;99.90;;;;;;6283433;22;20624;-86
2023/12/13 00:04:20;;;;;;;23.17;11.20;;;6.20;99.90;;;;;;6283671;22;20152;-90
2023/12/13 00:06:46;;;;;;;27.70;11.20;;;6.20;99.90;;;;;;6283584;22;20159;-85
2023/12/13 00:09:12;;;;;;;21.67;10.47;;;6.20;99.90;;;;;;6282810;22;20248;-86
2023/12/13 00:11:38;;;;;;;25.70;11.03;;;6.20;99.90;;;;;;6283194;22;20187;-86
2023/12/13 00:14:05;;;;;;;25.77;11.07;;;6.20;99.90;;;;;;6283279;22;20427;-86
2023/12/13 00:16:31;;;;;;;18.27;9.87;;;6.20;99.90;;;;;;6282888;22;20155;-87
2023/12/13 00:18:57;;;;;;;22.57;10.90;;;6.30;99.90;;;;;;6283327;22;20148;-87
2023/12/13 00:21:23;;;;;;;21.87;10.30;;;6.30;99.90;;;;;;6310621;22;20234;-88
2023/12/13 00:23:48;;;;;;;29.03;11.90;;;6.30;99.90;;;;;;6283209;22;20194;-88
2023/12/13 00:26:18;;;;;;;21.30;10.63;;;6.30;99.90;;;;;;6283130;22;20152;-87
2023/12/13 00:28:45;;;;;;;25.70;11.90;;;6.30;99.90;;;;;;6282932;22;20206;-88
2023/12/13 00:31:11;;;;;;;21.57;10.20;;;6.30;99.90;;;;;;6283102;22;20219;-87
2023/12/13 00:33:38;;;;;;;25.50;10.80;;;6.30;99.90;;;;;;6283412;22;20155;-88
2023/12/13 00:36:04;;;;;;;23.00;11.47;;;6.40;99.90;;;;;;6283099;22;20582;-88
2023/12/13 00:38:30;;;;;;;22.07;11.10;;;6.40;99.90;;;;;;6283297;22;20255;-91
2023/12/13 00:40:56;;;;;;;22.30;11.10;;;6.40;99.90;;;;;;6310763;22;20171;-90
2023/12/13 00:43:26;;;;;;;21.23;10.87;;;6.40;99.90;;;;;;6283607;22;20159;-90
2023/12/13 00:45:52;;;;;;;20.27;11.60;;;6.40;99.90;;;;;;6283790;22;20154;-90
2023/12/13 00:48:17;;;;;;;21.07;11.50;;;6.40;99.90;;;;;;6310944;22;20226;-90
2023/12/13 00:50:44;;;;;;;25.63;11.70;;;6.40;99.90;;;;;;6236085;22;20212;-88
2023/12/13 00:53:10;;;;;;;23.17;11.97;;;6.40;99.90;;;;;;6311058;22;20148;-89
2023/12/13 00:55:36;;;;;;;27.23;13.23;;;6.40;99.90;;;;;;6283718;22;20156;-89
2023/12/13 00:58:02;;;;;;;21.83;11.90;;;6.40;99.90;;;;;;6283723;22;20182;-89
2023/12/13 01:00:29;;;;;;;24.50;11.50;;;6.40;99.90;;;;;;6283693;22;20152;-89
2023/12/13 01:02:56;;;;;;;24.20;12.40;;;6.40;99.90;;;;;;6283776;22;20242;-89
2023/12/13 01:05:22;;;;;;;23.80;12.03;;;6.40;99.90;;;;;;6311098;22;20136;-89
2023/12/13 01:07:48;;;;;;;26.67;12.65;;;6.40;99.90;;;;;;6283411;22;20171;-90
2023/12/13 01:10:13;;;;;;;26.80;12.03;;;6.40;99.90;;;;;;6282768;22;20184;-89
2023/12/13 01:12:44;;;;;;;23.63;12.47;;;6.40;99.90;;;;;;6283315;22;20156;-89
2023/12/13 01:15:10;;;;;;;29.90;12.20;;;6.40;99.90;;;;;;6283172;22;20175;-89
2023/12/13 01:17:36;;;;;;;25.03;12.73;;;6.40;99.90;;;;;;6283535;22;20155;-89
2023/12/13 01:20:09;;;;;;;26.53;12.77;;;6.40;99.90;;;;;;6283034;22;20555;-89
2023/12/13 01:22:40;;;;;;;25.93;12.50;;;6.40;99.90;;;;;;6282912;22;20156;-88
2023/12/13 01:25:06;;;;;;;26.50;13.33;;;6.40;99.90;;;;;;6283262;22;20270;-89
2023/12/13 01:27:32;;;;;;;26.67;12.83;;;6.40;99.90;;;;;;6283066;22;20156;-89
2023/12/13 01:29:58;;;;;;;20.23;12.93;;;6.40;99.90;;;;;;6283735;22;20218;-89
2023/12/13 01:32:24;;;;;;;23.77;12.73;;;6.40;99.90;;;;;;6283121;22;20559;-89
2023/12/13 01:34:49;;;;;;;26.77;12.63;;;6.40;99.90;;;;;;6282947;22;20156;-88
2023/12/13 01:37:15;;;;;;;22.77;13.10;;;6.40;99.90;;;;;;6282848;22;20200;-88
2023/12/13 01:39:41;;;;;;;24.97;12.87;;;6.40;99.90;;;;;;6282957;22;20152;-89
2023/12/13 01:42:15;;;;;;;26.17;12.87;;;6.50;99.90;;;;;;6283017;22;20167;-88
2023/12/13 01:44:41;;;;;;;25.60;12.30;;;6.40;99.90;;;;;;6283204;22;20159;-88
2023/12/13 01:47:09;;;;;;;27.20;13.40;;;6.50;99.90;;;;;;6283340;22;20160;-88
2023/12/13 01:49:35;;;;;;;22.97;12.80;;;6.40;99.90;;;;;;6282954;22;20189;-88
2023/12/13 01:52:04;;;;;;;26.10;13.37;;;6.50;99.90;;;;;;6282645;22;20196;-88
2023/12/13 01:54:30;;;;;;;22.80;12.87;;;6.50;99.90;;;;;;6282910;22;20178;-88
2023/12/13 01:56:57;;;;;;;21.87;12.50;;;6.50;99.90;;;;;;6282358;22;20166;-88
2023/12/13 01:59:24;;;;;;;21.30;11.97;;;6.50;99.90;;;;;;6282509;22;20152;-88
2023/12/13 02:01:52;;;;;;;22.10;13.20;;;6.50;99.90;;;;;;6282728;22;20204;-87
2023/12/13 02:04:20;;;;;;;22.13;12.40;;;6.50;99.90;;;;;;6282639;22;20181;-87
2023/12/13 02:06:46;;;;;;;23.75;12.60;;;6.50;99.90;;;;;;6282076;22;20472;-87
2023/12/13 02:09:12;;;;;;;23.00;13.07;;;6.50;99.90;;;;;;6282730;22;20152;-86
2023/12/13 02:11:38;;;;;;;25.05;12.80;;;6.50;99.90;;;;;;6283241;22;20184;-87
2023/12/13 02:14:04;;;;;;;22.97;12.53;;;6.50;99.90;;;;;;6282867;22;20506;-87
2023/12/13 02:16:32;;;;;;;29.13;13.40;;;6.50;99.90;;;;;;6282912;22;20155;-86
2023/12/13 02:18:58;;;;;;;25.87;12.43;;;6.50;99.90;;;;;;6282393;22;20159;-86
2023/12/13 02:21:24;;;;;;;25.53;12.90;;;6.50;99.90;;;;;;6282438;22;20160;-86
2023/12/13 02:23:55;;;;;;;25.60;14.23;;;6.50;99.90;;;;;;6282413;22;20166;-86
2023/12/13 02:26:21;;;;;;;25.03;13.63;;;6.50;99.90;;;;;;6281877;22;20225;-86
2023/12/13 02:28:48;;;;;;;22.88;13.68;;;6.50;99.90;;;;;;6282465;22;20159;-87
2023/12/13 02:31:16;;;;;;;25.93;14.00;;;6.40;99.90;;;;;;6282417;22;20594;-87
2023/12/13 02:33:43;;;;;;;24.97;13.63;;;6.40;99.90;;;;;;6282585;22;20159;-87
2023/12/13 02:36:09;;;;;;;22.57;12.70;;;6.40;99.90;;;;;;6282519;22;20160;-87
2023/12/13 02:38:35;;;;;;;27.50;13.60;;;6.40;99.90;;;;;;6282811;22;20162;-87
2023/12/13 02:41:01;;;;;;;23.87;14.60;;;6.40;99.90;;;;;;6282684;22;20152;-87
2023/12/13 02:43:32;;;;;;;24.97;14.17;;;6.40;99.90;;;;;;6282697;22;20373;-87
2023/12/13 02:45:58;;;;;;;27.77;14.80;;;6.40;99.90;;;;;;6309834;22;20147;-87
2023/12/13 02:48:24;;;;;;;30.03;15.23;;;6.40;99.90;;;;;;6282524;22;20163;-87
2023/12/13 02:50:52;;;;;;;25.43;15.00;;;6.40;99.90;;;;;;6281772;22;20413;-88
2023/12/13 02:53:24;;;;;;;27.67;14.93;;;6.30;99.90;;;;;;6282647;22;20156;-87
2023/12/13 02:55:50;;;;;;;23.27;14.80;;;6.30;99.90;;;;;;6309903;22;20150;-87
2023/12/13 02:58:16;;;;;;;25.70;15.17;;;6.30;99.90;;;;;;6282788;22;20164;-88
2023/12/13 03:00:42;;;;;;;26.47;15.23;;;6.30;99.90;;;;;;6282804;22;20502;-88
2023/12/13 03:03:09;;;;;;;29.97;15.93;;;6.30;99.90;;;;;;6309617;22;20230;-87
2023/12/13 03:05:35;;;;;;;25.43;15.53;;;6.30;99.90;;;;;;6281934;22;20216;-88
2023/12/13 03:08:01;;;;;;;24.50;14.93;;;6.30;99.90;;;;;;6282315;22;20156;-87
2023/12/13 03:10:27;;;;;;;24.60;14.50;;;6.30;99.90;;;;;;6282368;22;20294;-87
2023/12/13 03:12:57;;;;;;;32.07;15.37;;;6.30;99.90;;;;;;6282648;22;20623;-87
2023/12/13 03:15:23;;;;;;;26.23;15.80;;;6.30;99.90;;;;;;6282439;22;20152;-88
2023/12/13 03:17:49;;;;;;;28.90;15.30;;;6.30;99.90;;;;;;6282118;22;20186;-87
2023/12/13 03:20:16;;;;;;;31.30;16.30;;;6.30;99.90;;;;;;6282331;22;20148;-86
2023/12/13 03:22:48;;;;;;;22.67;14.93;;;6.30;99.90;;;;;;6309423;22;20152;-88
2023/12/13 03:25:14;;;;;;;28.40;15.00;;;6.30;99.90;;;;;;6282544;22;20156;-88
2023/12/13 03:27:42;;;;;;;30.97;14.83;;;6.30;99.90;;;;;;6309283;22;20539;-88
2023/12/13 03:30:09;;;;;;;28.50;15.47;;;6.30;99.90;;;;;;6309398;22;20172;-87
2023/12/13 03:32:35;;;;;;;31.67;16.13;;;6.30;99.90;;;;;;6282506;22;20213;-87
2023/12/13 03:35:01;;;;;;;26.07;15.17;;;6.30;99.90;;;;;;6311145;22;20144;-87
2023/12/13 03:37:28;;;;;;;32.20;15.83;;;6.30;99.90;;;;;;6284140;22;20159;-88
2023/12/13 03:39:54;;;;;;;30.57;15.57;;;6.30;99.90;;;;;;6284317;22;20156;-87
2023/12/13 03:42:20;;;;;;;31.23;15.87;;;6.30;99.90;;;;;;6284135;22;20152;-87
2023/12/13 03:44:45;;;;;;;30.10;15.60;;;6.40;99.90;;;;;;6284214;22;20455;-88
2023/12/13 03:47:11;;;;;;;26.53;15.83;;;6.30;99.90;;;;;;6283777;22;20158;-85
2023/12/13 03:49:37;;;;;;;29.97;16.50;;;6.30;99.90;;;;;;6283882;22;20520;-87
2023/12/13 03:52:04;;;;;;;28.93;15.87;;;6.30;99.90;;;;;;6278354;22;20223;-88
2023/12/13 03:54:33;;;;;;;32.73;15.50;;;6.30;99.90;;;;;;6278746;22;20226;-89
2023/12/13 03:56:59;;;;;;;25.60;16.00;;;6.30;99.90;;;;;;6278908;22;20180;-89
2023/12/13 03:59:25;;;;;;;23.83;15.63;;;6.30;99.90;;;;;;6278992;22;20438;-91
2023/12/13 04:01:51;;;;;;;30.67;16.60;;;6.30;99.90;;;;;;6278827;22;20449;-89
2023/12/13 04:04:18;;;;;;;31.90;16.80;;;6.30;99.90;;;;;;6279008;22;20153;-92
2023/12/13 04:06:44;;;;;;;27.00;15.40;;;6.30;99.90;;;;;;6278618;22;20157;-90
2023/12/13 04:09:09;;;;;;;25.07;14.97;;;6.30;99.90;;;;;;6278844;22;20247;-90
2023/12/13 04:11:35;;;;;;;28.83;15.97;;;6.30;99.90;;;;;;6278913;22;20188;-91
2023/12/13 04:14:01;;;;;;;27.03;15.43;;;6.30;99.90;;;;;;6278700;22;20149;-90
2023/12/13 04:16:27;;;;;;;24.97;14.90;;;6.30;99.90;;;;;;6278424;22;20161;-92
2023/12/13 04:18:53;;;;;;;24.37;15.23;;;6.30;99.90;;;;;;6280810;22;20151;-91
2023/12/13 04:21:18;;;;;;;22.57;15.07;;;6.30;99.90;;;;;;6278432;22;20244;-91
2023/12/13 04:23:48;;;;;;;25.50;15.50;;;6.30;99.90;;;;;;6278919;22;20167;-90
2023/12/13 04:26:15;;;;;;;26.80;14.57;;;6.30;99.90;;;;;;6278834;22;20156;-91
2023/12/13 04:28:40;;;;;;;23.83;15.73;;;6.30;99.90;;;;;;6279988;22;20438;-90
2023/12/13 04:31:06;;;;;;;22.70;14.57;;;6.20;99.90;;;;;;6278324;22;20192;-89
2023/12/13 04:33:34;;;;;;;25.43;15.63;;;6.30;99.90;;;;;;6278600;22;20215;-89
2023/12/13 04:36:01;;;;;;;26.13;14.43;;;6.30;99.90;;;;;;6279877;22;20143;-90
2023/12/13 04:38:27;;;;;;;29.57;16.00;;;6.30;99.90;;;;;;6278618;22;20160;-89
2023/12/13 04:40:53;;;;;;;22.50;14.57;;;6.30;99.90;;;;;;6279989;22;20175;-89
2023/12/13 04:43:18;;;;;;;24.00;15.23;;;6.30;99.90;;;;;;6278513;22;20159;-88
2023/12/13 04:45:44;;;;;;;23.93;15.60;;;6.30;99.90;;;;;;6278364;22;20298;-88
2023/12/13 04:48:10;;;;;;;26.40;15.97;;;6.40;99.90;;;;;;6278706;22;20160;-89
2023/12/13 04:50:36;;;;;;;28.90;15.67;;;6.30;99.90;;;;;;6283049;22;20203;-89
2023/12/13 04:53:02;;;;;;;26.67;17.27;;;6.30;99.90;;;;;;6283418;22;20151;-89
2023/12/13 04:55:29;;;;;;;27.27;16.23;;;6.30;99.90;;;;;;6283403;22;20163;-89
2023/12/13 04:57:55;;;;;;;27.93;16.60;;;6.30;99.90;;;;;;6283631;22;20152;-88
2023/12/13 05:00:21;;;;;;;29.60;15.83;;;6.30;99.90;;;;;;6283612;22;20488;-88
2023/12/13 05:02:46;;;;;;;32.93;15.97;;;6.20;99.90;;;;;;6283307;22;20185;-88
2023/12/13 05:05:12;;;;;;;25.43;14.47;;;6.20;99.90;;;;;;6283351;22;20155;-87
2023/12/13 05:07:38;;;;;;;24.47;15.67;;;6.20;99.90;;;;;;6283099;22;20152;-89
2023/12/13 05:10:04;;;;;;;24.83;14.67;;;6.20;99.90;;;;;;6283461;22;20187;-88
2023/12/13 05:12:30;;;;;;;23.87;15.17;;;6.20;99.90;;;;;;6283358;22;20160;-89
2023/12/13 05:15:00;;;;;;;26.47;15.67;;;6.30;99.90;;;;;;6283240;22;20163;-89
2023/12/13 05:17:26;;;;;;;28.57;16.60;;;6.30;99.90;;;;;;6283173;22;20160;-89
2023/12/13 05:19:52;;;;;;;27.40;15.70;;;6.30;99.90;;;;;;6282772;22;20182;-89
2023/12/13 05:22:18;;;;;;;25.70;15.03;;;6.30;99.90;;;;;;6310014;22;20227;-89
2023/12/13 05:24:44;;;;;;;24.77;14.80;;;6.30;99.90;;;;;;6310436;22;20156;-89
2023/12/13 05:27:10;;;;;;;26.40;15.50;;;6.30;99.90;;;;;;6282901;22;20152;-89
2023/12/13 05:29:36;;;;;;;24.97;14.80;;;6.30;99.90;;;;;;6283514;22;20159;-89
2023/12/13 05:32:02;;;;;;;25.53;14.83;;;6.30;99.90;;;;;;6283241;22;20166;-89
2023/12/13 05:34:32;;;;;;;24.80;14.97;;;6.30;99.90;;;;;;6283251;22;20152;-89
2023/12/13 05:36:57;;;;;;;22.57;14.43;;;6.30;99.90;;;;;;6282779;22;20265;-89
2023/12/13 05:39:23;;;;;;;26.00;15.20;;;6.30;99.90;;;;;;6282386;22;20160;-89
2023/12/13 05:41:50;;;;;;;23.27;15.17;;;6.30;99.90;;;;;;6282933;22;20555;-89
2023/12/13 05:44:17;;;;;;;19.83;14.37;;;6.30;99.90;;;;;;6282631;22;20626;-89
2023/12/13 05:46:42;;;;;;;23.27;14.30;;;6.30;99.90;;;;;;6282940;22;20594;-89
2023/12/13 05:49:08;;;;;;;17.73;13.07;;;6.30;99.90;;;;;;6282881;22;20156;-88
2023/12/13 05:51:34;;;;;;;23.17;14.20;;;6.30;99.90;;;;;;6282081;22;20207;-88
2023/12/13 05:54:01;;;;;;;21.05;13.98;;;6.30;99.90;;;;;;6282958;22;20254;-89
2023/12/13 05:56:27;;;;;;;24.27;13.90;;;6.30;99.90;;;;;;6282633;22;20150;-89
2023/12/13 05:58:53;;;;;;;27.47;14.60;;;6.30;99.90;;;;;;6282988;22;20155;-89
2023/12/13 06:01:19;;;;;;;24.00;13.80;;;6.30;99.90;;;;;;6282859;22;20156;-89
2023/12/13 06:03:45;;;;;;;24.23;15.20;;;6.30;99.90;;;;;;6282811;22;20152;-87
2023/12/13 06:06:10;;;;;;;24.23;14.90;;;6.30;99.90;;;;;;6282510;22;20156;-87
2023/12/13 06:08:36;;;;;;;21.83;14.57;;;6.30;99.90;;;;;;6283242;22;20148;-88
2023/12/13 06:11:02;;;;;;;22.27;13.07;;;6.30;99.90;;;;;;6282948;22;20243;-89
2023/12/13 06:13:28;;;;;;;24.17;14.00;;;6.30;99.90;;;;;;6283051;22;20589;-88
2023/12/13 06:15:54;;;;;;;22.23;13.90;;;6.30;99.90;;;;;;6282290;22;20160;-89
2023/12/13 06:18:19;;;;;;;20.98;13.07;;;6.30;99.90;;;;;;6281606;22;20547;-88
2023/12/13 06:20:45;;;;;;;31.55;15.25;;;6.30;99.90;;;;;;6281416;22;20162;-88
2023/12/13 06:23:11;;;;;;;18.40;12.97;;;6.20;99.90;;;;;;6281969;22;20571;-88
2023/12/13 06:25:39;;;;;;;21.83;13.60;;;6.20;99.90;;;;;;6282124;22;20163;-88
2023/12/13 06:28:05;;;;;;;21.33;12.93;;;6.20;99.90;;;;;;6282143;22;20186;-87
2023/12/13 06:30:30;;;;;;;19.83;12.63;;;6.20;99.90;;;;;;6282417;22;20187;-89
2023/12/13 06:32:56;;;;;;;19.13;13.20;;;6.20;99.90;;;;;;6282802;22;20151;-88
2023/12/13 06:35:22;;;;;;;18.80;12.20;;;6.20;99.90;;;;;;6282760;22;20160;-88
2023/12/13 06:37:47;;;;;;;24.60;13.97;;;6.20;99.90;;;;;;6309489;22;20148;-89
2023/12/13 06:40:18;;;;;;;22.73;13.83;;;6.20;99.90;;;;;;6309985;22;20147;-88
2023/12/13 06:42:44;;;;;;;22.63;13.80;;;6.20;99.90;;;;;;6309436;22;20193;-88
2023/12/13 06:45:10;;;;;;;23.77;13.47;;;6.20;99.90;;;;;;6282416;22;20152;-88
2023/12/13 06:47:37;;;;;;;22.30;14.70;;;6.20;99.90;;;;;;6282287;22;20148;-88
2023/12/13 06:50:04;;;;;;;20.17;13.17;;;6.20;99.90;;;;;;6282098;22;20607;-87
2023/12/13 06:52:30;;;;;;;18.37;12.23;;;6.20;99.90;;;;;;6282164;22;20499;-88
2023/12/13 06:54:56;;;;;;;22.33;12.23;;;6.20;99.90;;;;;;6282862;22;20254;-88
2023/12/13 06:57:22;;;;;;;19.13;12.97;;;6.20;99.90;;;;;;6282572;22;20152;-87
2023/12/13 06:59:48;;;;;;;22.77;13.60;;;6.20;99.90;;;;;;6282636;22;20229;-87
2023/12/13 07:02:13;;;;;;;19.83;12.17;;;6.20;99.90;;;;;;6282331;22;20635;-87
2023/12/13 07:04:42;;;;;;;16.50;11.37;;;6.20;99.90;;;;;;6282462;22;20628;-88
2023/12/13 07:07:08;;;;;;;16.07;12.23;;;6.20;99.90;;;;;;6282124;22;20171;-87
2023/12/13 07:09:33;;;;;;;17.20;12.60;;;6.20;99.90;;;;;;6283562;22;20152;-89
2023/12/13 07:11:59;;;;;;;18.07;12.67;;;6.20;99.90;;;;;;6284539;22;20152;-88
2023/12/13 07:14:25;;;;;;;24.27;14.20;;;6.20;99.90;;;;;;6284556;22;20160;-88
2023/12/13 07:17:05;;;;;;;19.27;13.60;;;6.20;99.90;;;;;;6311289;22;20146;-88
2023/12/13 07:19:30;;;;;;;21.55;14.27;;;6.20;99.90;;;;;;6284428;22;20151;-88
2023/12/13 07:21:56;;;;;;;24.80;13.47;;;6.20;99.90;;;;;;6284276;22;20231;-89
2023/12/13 07:24:22;;;;;;;18.37;13.47;;;6.20;99.90;;;;;;6284180;22;20203;-90
2023/12/13 07:26:48;;;;;;;17.70;13.13;;;6.20;99.90;;;;;;6284176;22;20215;-90
2023/12/13 07:29:13;;;;;;;15.83;11.50;;;6.20;99.90;;;;;;6284203;22;20574;-89
2023/12/13 07:31:42;;;;;;;19.20;13.40;;;6.20;99.90;;;;;;6283989;22;20263;-90
2023/12/13 07:34:11;;;;;;;18.70;13.25;;;6.30;99.90;;;;;;6283934;22;20216;-90
2023/12/13 07:36:37;;;;;;;19.60;13.37;;;6.20;99.90;;;;;;6283661;22;20164;-91
2023/12/13 07:39:03;;;;;;;19.77;13.90;;;6.30;99.90;;;;;;6284213;22;20615;-90
2023/12/13 07:41:29;;;;;;;20.53;13.33;;;6.30;99.90;;;;;;6283971;22;20236;-89
2023/12/13 07:43:55;;;;;;;21.90;13.27;;;6.30;99.90;;;;;;6283879;22;20579;-89
2023/12/13 07:46:22;;;;;;;27.00;14.27;;;6.30;99.90;;;;;;6283496;22;20164;-91
2023/12/13 07:48:51;;;;;;;20.63;14.10;;;6.30;99.90;;;;;;6283744;22;20179;-89
2023/12/13 07:51:16;;;;;;;20.97;13.37;;;6.30;99.90;;;;;;6283390;22;20203;-90
2023/12/13 07:53:45;;;;;;;20.10;13.10;;;6.30;99.90;;;;;;6311208;22;20181;-90
2023/12/13 07:56:11;;;;;;;25.33;13.07;;;6.30;99.90;;;;;;6283397;22;20257;-89
2023/12/13 07:58:37;;;;;;;18.83;13.93;;;6.40;99.90;;;;;;6284036;22;20143;-89
2023/12/13 08:01:03;;;;;;;22.60;13.97;;;6.30;99.90;;;;;;6283542;22;20186;-91
2023/12/13 08:03:29;;;;;;;16.73;12.17;;;6.40;99.90;;;;;;6283966;22;20163;-90
2023/12/13 08:05:55;;;;;;;21.00;12.80;;;6.40;99.90;;;;;;6310942;22;20148;-90
2023/12/13 08:08:21;;;;;;;21.47;13.40;;;6.40;99.90;;;;;;6283456;22;20148;-90
2023/12/13 08:10:47;;;;;;;18.07;13.17;;;6.40;99.90;;;;;;6284076;22;20275;-91
2023/12/13 08:13:12;;;;;;;21.73;13.98;;;6.40;99.90;;;;;;6283571;22;20160;-92
2023/12/13 08:15:38;;;;;;;18.55;13.18;;;6.40;99.90;;;;;;6283346;22;20163;-90
2023/12/13 08:18:04;;;;;;;19.03;12.97;;;6.40;99.90;;;;;;6283024;22;20167;-90
2023/12/13 08:20:30;;;;;;;21.50;13.60;;;6.40;99.90;;;;;;6284028;22;20159;-91
2023/12/13 08:22:57;;;;;;;21.30;14.43;;;6.40;99.90;;;;;;6283955;22;20163;-89
2023/12/13 08:25:22;;;;;;;19.07;13.17;;;6.40;99.90;;;;;;6283936;22;20155;-89
2023/12/13 08:27:55;;;;;;;17.80;13.23;;;6.50;99.90;;;;;;6283784;22;20472;-89
2023/12/13 08:30:21;;;;;;;19.23;12.67;;;6.50;99.90;;;;;;6283969;22;20606;-89
2023/12/13 08:32:47;;;;;;;22.20;13.07;;;6.50;99.90;;;;;;6283832;22;20209;-89
2023/12/13 08:35:13;;;;;;;21.63;13.13;;;6.50;99.90;;;;;;6283354;22;20162;-89
2023/12/13 08:37:38;;;;;;;18.70;12.60;;;6.50;99.90;;;;;;6283263;22;20152;-90
2023/12/13 08:40:05;;;;;;;18.93;12.30;;;6.50;99.90;;;;;;6283284;22;20193;-89
2023/12/13 08:42:31;;;;;;;18.37;12.97;;;6.50;99.90;;;;;;6283492;22;20171;-88
2023/12/13 08:44:57;;;;;;;20.75;13.25;;;6.60;99.90;;;;;;6283573;22;20155;-90
2023/12/13 08:47:23;;;;;;;19.10;13.10;;;6.60;99.90;;;;;;6283383;22;20160;-90
2023/12/13 08:49:49;;;;;;;26.43;14.50;;;6.60;99.90;;;;;;6283240;22;20453;-89
2023/12/13 08:52:17;;;;;;;17.63;13.33;;;6.60;99.90;;;;;;6282868;22;20183;-90
2023/12/13 08:54:42;;;;;;;20.30;13.17;;;6.60;99.90;;;;;;6283248;22;20163;-89
2023/12/13 08:57:08;;;;;;;22.90;13.27;;;6.60;99.90;;;;;;6283072;22;20544;-89
2023/12/13 08:59:34;;;;;;;20.47;13.60;;;6.60;99.90;;;;;;6283037;22;20147;-90
2023/12/13 09:02:00;;;;;;;19.70;13.60;;;6.70;99.90;;;;;;6283143;22;20187;-89
2023/12/13 09:04:25;;;;;;;20.53;13.60;;;6.70;99.90;;;;;;6282988;22;20198;-90
2023/12/13 09:06:51;;;;;;;19.10;13.00;;;6.70;99.90;;;;;;6282527;22;20156;-90
2023/12/13 09:09:17;;;;;;;17.13;12.73;;;6.70;99.90;;;;;;6283045;22;20260;-91
2023/12/13 09:11:43;;;;;;;19.37;12.50;;;6.70;99.90;;;;;;6282903;22;20250;-89
2023/12/13 09:14:09;;;;;;;20.73;13.37;;;6.70;99.90;;;;;;6282880;22;20163;-90
2023/12/13 09:16:35;;;;;;;20.55;13.90;;;6.70;99.90;;;;;;6283289;22;20160;-89
2023/12/13 09:19:02;;;;;;;19.53;12.90;;;6.80;99.90;;;;;;6283106;22;20643;-89
2023/12/13 09:21:28;;;;;;;20.67;14.07;;;6.70;99.90;;;;;;6282647;22;20156;-89
2023/12/13 09:23:54;;;;;;;22.53;14.07;;;6.70;99.90;;;;;;6283197;22;20159;-89
2023/12/13 09:26:19;;;;;;;21.55;13.85;;;6.80;99.90;;;;;;6282800;22;20616;-90
2023/12/13 09:28:45;;;;;;;21.27;13.57;;;6.80;99.90;;;;;;6283546;22;20460;-89
2023/12/13 09:31:12;;;;;;;18.90;12.25;;;6.90;99.90;;;;;;6282456;22;20187;-89
2023/12/13 09:33:38;;;;;;;22.33;13.95;;;6.90;99.90;;;;;;6282977;22;20160;-90
2023/12/13 09:36:04;;;;;;;20.60;12.65;;;6.90;99.90;;;;;;6282768;22;20238;-88
2023/12/13 09:38:30;;;;;;;23.92;14.00;;;6.90;99.90;;;;;;6282507;22;20171;-89
2023/12/13 09:40:56;;;;;;;22.75;13.93;;;7.00;99.90;;;;;;6282633;22;20167;-89
2023/12/13 09:43:23;;;;;;;20.55;13.27;;;7.00;99.90;;;;;;6309696;22;20151;-89
2023/12/13 09:45:53;;;;;;;20.55;13.57;;;7.10;99.90;;;;;;6282952;22;20152;-89
2023/12/13 09:48:23;;;;;;;22.38;15.10;;;7.10;99.90;;;;;;6282954;22;20148;-88
2023/12/13 09:50:53;;;;;;;25.40;14.98;;;7.20;99.90;;;;;;6282626;22;20204;-89
2023/12/13 09:53:21;;;;;;;23.77;14.20;;;7.30;99.90;;;;;;6282633;22;20176;-89
2023/12/13 09:55:48;;;;;;;23.27;13.43;;;7.30;99.90;;;;;;6282557;22;20231;-88
2023/12/13 09:58:14;;;;;;;22.42;13.52;;;7.30;99.90;;;;;;6282703;22;20162;-89
2023/12/13 10:00:41;;;;;;;22.60;13.52;;;7.40;99.90;;;;;;6282887;22;20156;-89
2023/12/13 10:03:07;;;;;;;25.13;14.63;;;7.40;99.90;;;;;;6283117;22;20186;-88
2023/12/13 10:05:36;;;;;;;23.00;14.18;;;7.40;99.90;;;;;;6309800;22;20148;-89
2023/12/13 10:08:03;;;;;;;20.65;13.02;;;7.50;99.90;;;;;;6282414;22;20158;-89
2023/12/13 10:10:32;;;;;;;21.15;13.52;;;7.50;99.90;;;;;;6309584;22;20164;-88
2023/12/13 10:13:01;;;;;;;24.67;12.80;;;7.50;99.90;;;;;;6282966;22;20285;-89
2023/12/13 10:15:32;;;;;;;17.23;11.75;;;7.50;99.90;;;;;;6282848;22;20251;-89
2023/12/13 10:18:01;;;;;;;18.08;11.15;;;7.60;99.90;;;;;;6310233;22;20136;-89
2023/12/13 10:20:30;;;;;;;20.65;11.85;;;7.70;99.90;;;;;;6282878;22;20555;-87
2023/12/13 10:22:57;;;;;;;17.30;10.65;;;7.70;99.90;;;;;;6282413;22;20239;-88
2023/12/13 10:25:23;;;;;;;16.08;10.77;;;7.70;99.90;;;;;;6282721;22;20152;-89
2023/12/13 10:27:51;;;;;;;18.50;10.98;;;7.70;99.90;;;;;;6282873;22;20160;-89
2023/12/13 10:30:20;;;;;;;14.25;9.55;;;7.80;99.90;;;;;;6283085;22;20214;-89
2023/12/13 10:32:46;;;;;;;14.90;10.13;;;7.80;99.90;;;;;;6282852;22;20226;-88
2023/12/13 10:35:12;;;;;;;14.98;9.65;;;7.80;99.90;;;;;;6282857;22;20269;-89
2023/12/13 10:37:41;;;;;;;16.08;10.52;;;7.80;99.90;;;;;;6282679;22;20204;-86
2023/12/13 10:40:09;;;;;;;14.07;9.75;;;7.90;99.90;;;;;;6282860;22;20148;-88
2023/12/13 10:42:37;;;;;;;19.05;10.45;;;7.90;99.90;;;;;;6283186;22;20519;-88
2023/12/13 10:45:05;;;;;;;16.05;10.27;;;7.90;99.90;;;;;;6286058;22;20555;-88
2023/12/13 10:47:43;;;;;;;23.30;15.55;;;8.00;99.90;;;;;;6285796;22;20151;-88
2023/12/13 10:50:10;;;;;;;22.67;14.82;;;7.90;99.90;;;;;;6285895;22;20315;-89
2023/12/13 10:52:38;;;;;;;24.58;15.27;;;8.00;99.90;;;;;;6285770;22;20162;-88
2023/12/13 10:55:07;;;;;;;21.60;14.35;;;8.00;99.90;;;;;;6286133;22;20156;-88
2023/12/13 10:57:36;;;;;;;22.77;14.85;;;8.00;99.90;;;;;;6313051;22;20589;-89
2023/12/13 11:00:07;;;;;;;20.98;14.02;;;8.10;99.90;;;;;;6285900;22;20209;-88
2023/12/13 11:02:44;;;;;;;24.98;14.90;;;8.10;99.90;;;;;;6286047;22;20509;-88
2023/12/13 11:05:10;;;;;;;24.73;15.30;;;8.20;99.90;;;;;;6285815;22;20151;-87
2023/12/13 11:07:48;;;;;;;27.27;15.77;;;8.20;99.90;;;;;;6285622;22;20269;-88
2023/12/13 11:10:15;;;;;;;25.15;15.38;;;8.30;99.90;;;;;;6285962;22;20183;-88
2023/12/13 11:12:51;;;;;;;23.95;15.35;;;8.30;99.90;;;;;;6285841;22;20152;-88
2023/12/13 11:15:18;;;;;;;20.38;13.98;;;8.40;99.90;;;;;;6286003;22;20159;-88
2023/12/13 11:17:49;;;;;;;25.83;14.88;;;8.40;99.90;;;;;;6285837;22;20156;-88
2023/12/13 11:20:15;;;;;;;21.48;14.25;;;8.30;99.90;;;;;;6286162;22;20172;-87
2023/12/13 11:22:45;;;;;;;22.38;14.15;;;8.30;99.90;;;;;;6285480;22;20209;-88
2023/12/13 11:25:11;;;;;;;22.15;13.93;;;8.30;99.90;;;;;;6285787;22;20156;-88
2023/12/13 11:28:00;;;;;;;22.88;14.55;;;8.30;99.90;;;;;;6285771;22;20156;-88
2023/12/13 11:30:26;;;;;;;23.25;14.27;;;8.20;99.90;;;;;;6313050;22;20254;-88
2023/12/13 11:32:51;;;;;;;21.48;14.15;;;8.20;99.90;;;;;;6285963;22;20179;-88
2023/12/13 11:35:19;;;;;;;21.67;13.65;;;8.20;99.90;;;;;;6285642;22;20536;-88
2023/12/13 11:37:54;;;;;;;19.98;13.52;;;8.30;99.90;;;;;;6312610;22;20183;-88
2023/12/13 11:40:21;;;;;;;20.40;13.25;;;8.20;99.90;;;;;;6285795;22;20171;-88
2023/12/13 11:42:47;;;;;;;22.20;13.63;;;8.20;99.90;;;;;;6285702;22;20156;-88
2023/12/13 11:45:13;;;;;;;17.73;12.57;;;8.20;99.90;;;;;;6285796;22;20167;-88
2023/12/13 11:47:47;;;;;;;20.38;13.68;;;8.20;99.90;;;;;;6285683;22;20210;-88
2023/12/13 11:50:13;;;;;;;21.25;13.52;;;8.10;99.90;;;;;;6285013;22;20290;-87
2023/12/13 11:52:39;;;;;;;23.10;13.80;;;8.10;99.90;;;;;;6285208;22;20163;-87
2023/12/13 11:55:08;;;;;;;22.55;13.88;;;8.10;99.90;;;;;;6284449;22;20156;-88
2023/12/13 11:57:35;;;;;;;25.38;14.80;;;8.00;99.90;;;;;;6283696;22;20163;-88
2023/12/13 12:00:01;;;;;;;23.58;14.32;;;8.00;99.90;;;;;;6284406;22;20151;-88
2023/12/13 12:02:27;;;;;;;24.67;15.00;;;8.00;99.90;;;;;;6284269;22;20450;-87
2023/12/13 12:04:53;;;;;;;21.15;13.48;;;7.90;99.90;;;;;;6284495;22;20159;-87
2023/12/13 12:07:19;;;;;;;28.52;13.50;;;7.90;99.90;;;;;;6283532;22;20495;-87
2023/12/13 12:09:52;;;;;;;18.20;12.65;;;7.90;99.90;;;;;;6283988;22;20197;-87
2023/12/13 12:12:18;;;;;;;19.13;11.85;;;7.90;99.90;;;;;;6283880;22;20550;-87
2023/12/13 12:14:48;;;;;;;19.00;11.63;;;7.80;99.90;;;;;;6311329;22;20227;-88
2023/12/13 12:17:19;;;;;;;18.15;11.20;;;7.80;99.90;;;;;;6283436;22;20258;-87
2023/12/13 12:19:46;;;;;;;21.48;11.30;;;7.70;99.90;;;;;;6283873;22;20171;-88
2023/12/13 12:22:12;;;;;;;18.45;10.75;;;7.80;99.90;;;;;;6283367;22;20156;-87
2023/12/13 12:24:38;;;;;;;17.35;10.88;;;7.70;99.90;;;;;;6284168;22;20159;-88
2023/12/13 12:27:11;;;;;;;18.17;11.10;;;7.60;99.90;;;;;;6283608;22;20440;-88
2023/12/13 12:29:37;;;;;;;16.27;10.35;;;7.60;99.90;;;;;;6283884;22;20152;-87
2023/12/13 12:32:08;;;;;;;18.85;10.30;;;7.60;99.90;;;;;;6283736;22;20553;-88
2023/12/13 12:34:36;;;;;;;13.95;10.23;;;7.60;99.90;;;;;;6283879;22;20156;-87
2023/12/13 12:37:02;;;;;;;16.73;10.77;;;7.60;99.90;;;;;;6283317;22;20190;-88